sensor_id;sensor_type;location;lat;lon;timestamp;pressure;altitude;pressure_sealevel;temperature;humidity
29359;BME280;16347;53.232;6.556;2023-05-29T00:01:49;102547.13;;;16.71;46.00
29359;BME280;16347;53.232;6.556;2023-05-29T00:04:17;102548.75;;;16.64;46.07
29359;BME280;16347;53.232;6.556;2023-05-29T00:06:45;102554.16;;;16.56;46.27
29359;BME280;16347;53.232;6.556;2023-05-29T00:09:13;102552.44;;;16.55;46.52
29359;BME280;16347;53.232;6.556;2023-05-29T00:11:41;102554.91;;;16.58;46.54
29359;BME280;16347;53.232;6.556;2023-05-29T00:14:10;102546.78;;;16.56;45.84
29359;BME280;16347;53.232;6.556;2023-05-29T00:16:41;102555.63;;;16.50;46.17
29359;BME280;16347;53.232;6.556;2023-05-29T00:19:10;102553.44;;;16.54;46.02
29359;BME280;16347;53.232;6.556;2023-05-29T00:21:39;102554.44;;;16.53;46.31
29359;BME280;16347;53.232;6.556;2023-05-29T00:24:07;102550.69;;;16.54;45.90
29359;BME280;16347;53.232;6.556;2023-05-29T00:26:34;102550.13;;;16.50;45.94
29359;BME280;16347;53.232;6.556;2023-05-29T00:29:03;102547.00;;;16.45;45.76
29359;BME280;16347;53.232;6.556;2023-05-29T00:31:32;102545.41;;;16.42;46.60
29359;BME280;16347;53.232;6.556;2023-05-29T00:34:01;102545.91;;;16.38;46.17
29359;BME280;16347;53.232;6.556;2023-05-29T00:36:29;102551.00;;;16.51;45.89
29359;BME280;16347;53.232;6.556;2023-05-29T00:38:58;102555.78;;;16.49;46.01
29359;BME280;16347;53.232;6.556;2023-05-29T00:41:26;102557.13;;;16.45;46.23
29359;BME280;16347;53.232;6.556;2023-05-29T00:43:54;102555.78;;;16.49;45.89
29359;BME280;16347;53.232;6.556;2023-05-29T00:46:22;102559.06;;;16.52;45.24
29359;BME280;16347;53.232;6.556;2023-05-29T00:48:50;102560.00;;;16.43;45.97
29359;BME280;16347;53.232;6.556;2023-05-29T00:51:21;102572.72;;;16.44;45.67
29359;BME280;16347;53.232;6.556;2023-05-29T00:53:50;102571.38;;;16.30;45.49
29359;BME280;16347;53.232;6.556;2023-05-29T00:56:19;102576.69;;;16.32;45.68
29359;BME280;16347;53.232;6.556;2023-05-29T00:58:49;102581.03;;;16.34;45.52
29359;BME280;16347;53.232;6.556;2023-05-29T01:01:19;102578.34;;;16.25;45.42
29359;BME280;16347;53.232;6.556;2023-05-29T01:03:48;102581.34;;;16.31;45.69
29359;BME280;16347;53.232;6.556;2023-05-29T01:06:16;102573.41;;;16.28;45.67
29359;BME280;16347;53.232;6.556;2023-05-29T01:08:45;102579.06;;;16.27;45.69
29359;BME280;16347;53.232;6.556;2023-05-29T01:11:21;102573.81;;;16.33;45.59
29359;BME280;16347;53.232;6.556;2023-05-29T01:13:53;102577.81;;;16.39;45.35
29359;BME280;16347;53.232;6.556;2023-05-29T01:16:29;102585.50;;;16.35;45.04
29359;BME280;16347;53.232;6.556;2023-05-29T01:19:10;102595.66;;;16.25;45.32
29359;BME280;16347;53.232;6.556;2023-05-29T01:21:53;102587.66;;;16.41;45.17
29359;BME280;16347;53.232;6.556;2023-05-29T01:24:32;102580.72;;;16.37;45.47
29359;BME280;16347;53.232;6.556;2023-05-29T01:27:07;102585.56;;;16.26;45.46
29359;BME280;16347;53.232;6.556;2023-05-29T01:29:39;102576.88;;;16.30;45.51
29359;BME280;16347;53.232;6.556;2023-05-29T01:32:10;102568.78;;;16.29;45.53
29359;BME280;16347;53.232;6.556;2023-05-29T01:34:38;102561.88;;;16.25;45.35
29359;BME280;16347;53.232;6.556;2023-05-29T01:37:06;102568.13;;;16.17;45.68
29359;BME280;16347;53.232;6.556;2023-05-29T01:39:35;102568.78;;;16.29;45.49
29359;BME280;16347;53.232;6.556;2023-05-29T01:42:04;102568.38;;;16.24;45.71
29359;BME280;16347;53.232;6.556;2023-05-29T01:44:36;102567.75;;;16.30;45.93
29359;BME280;16347;53.232;6.556;2023-05-29T01:47:07;102568.72;;;16.38;45.56
29359;BME280;16347;53.232;6.556;2023-05-29T01:49:36;102574.69;;;16.34;45.39
29359;BME280;16347;53.232;6.556;2023-05-29T01:52:07;102576.94;;;16.38;45.52
29359;BME280;16347;53.232;6.556;2023-05-29T01:54:35;102575.88;;;16.22;45.75
29359;BME280;16347;53.232;6.556;2023-05-29T01:57:04;102571.50;;;16.29;45.92
29359;BME280;16347;53.232;6.556;2023-05-29T01:59:38;102576.31;;;16.27;45.89
29359;BME280;16347;53.232;6.556;2023-05-29T02:02:06;102579.44;;;16.59;45.38
29359;BME280;16347;53.232;6.556;2023-05-29T02:04:34;102580.78;;;16.46;45.63
29359;BME280;16347;53.232;6.556;2023-05-29T02:07:02;102584.59;;;16.45;45.66
29359;BME280;16347;53.232;6.556;2023-05-29T02:09:30;102590.28;;;16.33;45.72
29359;BME280;16347;53.232;6.556;2023-05-29T02:11:58;102582.03;;;16.33;45.83
29359;BME280;16347;53.232;6.556;2023-05-29T02:14:27;102593.72;;;16.35;45.99
29359;BME280;16347;53.232;6.556;2023-05-29T02:16:57;102591.72;;;16.37;46.10
29359;BME280;16347;53.232;6.556;2023-05-29T02:19:25;102594.44;;;16.37;45.96
29359;BME280;16347;53.232;6.556;2023-05-29T02:21:53;102589.66;;;16.39;46.25
29359;BME280;16347;53.232;6.556;2023-05-29T02:24:21;102590.66;;;16.38;46.37
29359;BME280;16347;53.232;6.556;2023-05-29T02:26:49;102586.91;;;16.39;46.25
29359;BME280;16347;53.232;6.556;2023-05-29T02:29:18;102589.84;;;16.38;46.37
29359;BME280;16347;53.232;6.556;2023-05-29T02:31:46;102595.56;;;16.45;46.37
29359;BME280;16347;53.232;6.556;2023-05-29T02:34:16;102595.78;;;16.33;46.37
29359;BME280;16347;53.232;6.556;2023-05-29T02:36:44;102588.34;;;16.43;46.43
29359;BME280;16347;53.232;6.556;2023-05-29T02:39:12;102591.94;;;16.44;46.42
29359;BME280;16347;53.232;6.556;2023-05-29T02:41:40;102598.44;;;16.43;46.29
29359;BME280;16347;53.232;6.556;2023-05-29T02:44:08;102593.81;;;16.43;46.33
29359;BME280;16347;53.232;6.556;2023-05-29T02:46:36;102587.91;;;16.38;46.18
29359;BME280;16347;53.232;6.556;2023-05-29T02:49:04;102583.75;;;16.17;47.04
29359;BME280;16347;53.232;6.556;2023-05-29T02:51:33;102590.97;;;16.35;46.53
29359;BME280;16347;53.232;6.556;2023-05-29T02:54:02;102591.09;;;16.43;46.72
29359;BME280;16347;53.232;6.556;2023-05-29T02:56:30;102592.34;;;16.49;46.28
29359;BME280;16347;53.232;6.556;2023-05-29T02:58:58;102583.16;;;16.40;45.85
29359;BME280;16347;53.232;6.556;2023-05-29T03:01:28;102576.50;;;16.43;46.13
29359;BME280;16347;53.232;6.556;2023-05-29T03:03:56;102579.09;;;16.45;46.08
29359;BME280;16347;53.232;6.556;2023-05-29T03:06:25;102587.66;;;16.41;45.99
29359;BME280;16347;53.232;6.556;2023-05-29T03:08:54;102588.72;;;16.49;45.88
29359;BME280;16347;53.232;6.556;2023-05-29T03:11:23;102588.59;;;16.50;45.81
29359;BME280;16347;53.232;6.556;2023-05-29T03:13:51;102588.47;;;16.42;45.84
29359;BME280;16347;53.232;6.556;2023-05-29T03:16:19;102581.84;;;16.45;45.84
29359;BME280;16347;53.232;6.556;2023-05-29T03:18:47;102584.16;;;16.39;45.89
29359;BME280;16347;53.232;6.556;2023-05-29T03:21:18;102587.22;;;16.36;45.94
29359;BME280;16347;53.232;6.556;2023-05-29T03:23:46;102582.91;;;16.34;45.66
29359;BME280;16347;53.232;6.556;2023-05-29T03:26:17;102583.84;;;16.25;45.84
29359;BME280;16347;53.232;6.556;2023-05-29T03:28:47;102582.97;;;16.24;46.03
29359;BME280;16347;53.232;6.556;2023-05-29T03:31:15;102584.13;;;16.22;45.67
29359;BME280;16347;53.232;6.556;2023-05-29T03:33:43;102586.47;;;16.17;45.89
29359;BME280;16347;53.232;6.556;2023-05-29T03:36:25;102589.84;;;16.11;46.11
29359;BME280;16347;53.232;6.556;2023-05-29T03:38:53;102591.53;;;16.12;46.11
29359;BME280;16347;53.232;6.556;2023-05-29T03:41:23;102587.97;;;16.11;45.93
29359;BME280;16347;53.232;6.556;2023-05-29T03:43:52;102593.34;;;16.03;46.38
29359;BME280;16347;53.232;6.556;2023-05-29T03:46:22;102598.38;;;16.08;46.40
29359;BME280;16347;53.232;6.556;2023-05-29T03:48:50;102597.59;;;16.15;46.28
29359;BME280;16347;53.232;6.556;2023-05-29T03:51:18;102601.81;;;16.10;45.79
29359;BME280;16347;53.232;6.556;2023-05-29T03:53:48;102600.56;;;16.04;46.15
29359;BME280;16347;53.232;6.556;2023-05-29T03:56:16;102604.63;;;16.00;45.74
29359;BME280;16347;53.232;6.556;2023-05-29T03:58:47;102602.88;;;15.99;45.71
29359;BME280;16347;53.232;6.556;2023-05-29T04:01:15;102604.75;;;15.99;45.82
29359;BME280;16347;53.232;6.556;2023-05-29T04:03:42;102601.00;;;16.00;45.74
29359;BME280;16347;53.232;6.556;2023-05-29T04:06:13;102603.91;;;15.98;45.70
29359;BME280;16347;53.232;6.556;2023-05-29T04:08:40;102616.56;;;16.09;45.37
29359;BME280;16347;53.232;6.556;2023-05-29T04:11:09;102616.25;;;16.12;45.17
29359;BME280;16347;53.232;6.556;2023-05-29T04:13:38;102616.25;;;16.12;45.13
29359;BME280;16347;53.232;6.556;2023-05-29T04:16:08;102617.03;;;16.04;44.94
29359;BME280;16347;53.232;6.556;2023-05-29T04:18:37;102613.03;;;15.89;45.19
29359;BME280;16347;53.232;6.556;2023-05-29T04:21:05;102624.31;;;15.86;45.70
29359;BME280;16347;53.232;6.556;2023-05-29T04:23:33;102617.81;;;15.87;45.20
29359;BME280;16347;53.232;6.556;2023-05-29T04:26:01;102614.47;;;15.93;45.89
29359;BME280;16347;53.232;6.556;2023-05-29T04:28:30;102616.50;;;15.91;45.26
29359;BME280;16347;53.232;6.556;2023-05-29T04:30:59;102627.00;;;15.96;45.36
29359;BME280;16347;53.232;6.556;2023-05-29T04:33:29;102627.94;;;15.86;45.52
29359;BME280;16347;53.232;6.556;2023-05-29T04:35:57;102630.53;;;15.88;45.40
29359;BME280;16347;53.232;6.556;2023-05-29T04:38:27;102626.06;;;15.87;44.89
29359;BME280;16347;53.232;6.556;2023-05-29T04:40:57;102629.41;;;15.81;45.14
29359;BME280;16347;53.232;6.556;2023-05-29T04:43:26;102637.03;;;15.87;45.29
29359;BME280;16347;53.232;6.556;2023-05-29T04:46:02;102629.97;;;15.84;45.53
29359;BME280;16347;53.232;6.556;2023-05-29T04:48:35;102643.38;;;15.87;45.67
29359;BME280;16347;53.232;6.556;2023-05-29T04:51:07;102643.63;;;15.94;45.20
29359;BME280;16347;53.232;6.556;2023-05-29T04:53:38;102642.34;;;15.88;45.29
29359;BME280;16347;53.232;6.556;2023-05-29T04:56:08;102638.91;;;15.86;44.94
29359;BME280;16347;53.232;6.556;2023-05-29T04:58:36;102638.75;;;15.78;44.87
29359;BME280;16347;53.232;6.556;2023-05-29T05:01:05;102633.53;;;15.85;44.84
29359;BME280;16347;53.232;6.556;2023-05-29T05:03:38;102637.72;;;15.89;44.88
29359;BME280;16347;53.232;6.556;2023-05-29T05:06:07;102639.59;;;15.88;45.08
29359;BME280;16347;53.232;6.556;2023-05-29T05:08:36;102642.91;;;15.92;45.22
29359;BME280;16347;53.232;6.556;2023-05-29T05:11:04;102644.50;;;15.95;44.87
29359;BME280;16347;53.232;6.556;2023-05-29T05:13:33;102653.88;;;15.92;45.01
29359;BME280;16347;53.232;6.556;2023-05-29T05:16:01;102646.69;;;15.91;45.24
29359;BME280;16347;53.232;6.556;2023-05-29T05:18:30;102643.34;;;15.97;45.43
29359;BME280;16347;53.232;6.556;2023-05-29T05:21:05;102647.34;;;16.03;45.58
29359;BME280;16347;53.232;6.556;2023-05-29T05:23:34;102644.66;;;15.93;45.71
29359;BME280;16347;53.232;6.556;2023-05-29T05:26:23;102648.09;;;15.95;45.78
29359;BME280;16347;53.232;6.556;2023-05-29T05:28:53;102644.03;;;15.99;45.85
29359;BME280;16347;53.232;6.556;2023-05-29T05:31:23;102654.72;;;16.02;45.68
29359;BME280;16347;53.232;6.556;2023-05-29T05:33:52;102644.66;;;15.93;45.58
29359;BME280;16347;53.232;6.556;2023-05-29T05:36:22;102646.78;;;15.99;45.98
29359;BME280;16347;53.232;6.556;2023-05-29T05:38:56;102642.28;;;16.08;46.03
29359;BME280;16347;53.232;6.556;2023-05-29T05:41:24;102654.00;;;16.00;45.97
29359;BME280;16347;53.232;6.556;2023-05-29T05:43:53;102654.28;;;16.07;46.00
29359;BME280;16347;53.232;6.556;2023-05-29T05:46:41;102648.34;;;16.02;46.28
29359;BME280;16347;53.232;6.556;2023-05-29T05:49:09;102654.72;;;16.02;46.07
29359;BME280;16347;53.232;6.556;2023-05-29T05:51:40;102651.56;;;15.97;46.02
29359;BME280;16347;53.232;6.556;2023-05-29T05:54:10;102654.13;;;16.08;46.53
29359;BME280;16347;53.232;6.556;2023-05-29T05:56:39;102651.38;;;16.08;45.62
29359;BME280;16347;53.232;6.556;2023-05-29T05:59:09;102646.44;;;16.12;46.71
29359;BME280;16347;53.232;6.556;2023-05-29T06:01:37;102643.25;;;16.16;46.19
29359;BME280;16347;53.232;6.556;2023-05-29T06:04:05;102646.25;;;16.23;46.08
29359;BME280;16347;53.232;6.556;2023-05-29T06:06:34;102653.88;;;16.29;45.97
29359;BME280;16347;53.232;6.556;2023-05-29T06:09:03;102656.88;;;16.08;45.89
29359;BME280;16347;53.232;6.556;2023-05-29T06:11:32;102663.06;;;16.10;46.27
29359;BME280;16347;53.232;6.556;2023-05-29T06:14:00;102659.06;;;15.95;46.04
29359;BME280;16347;53.232;6.556;2023-05-29T06:16:28;102663.63;;;15.77;46.63
29359;BME280;16347;53.232;6.556;2023-05-29T06:18:57;102668.19;;;15.86;46.38
29359;BME280;16347;53.232;6.556;2023-05-29T06:21:26;102669.50;;;15.82;46.21
29359;BME280;16347;53.232;6.556;2023-05-29T06:23:55;102671.97;;;15.75;46.30
29359;BME280;16347;53.232;6.556;2023-05-29T06:26:27;102672.97;;;15.84;45.89
29359;BME280;16347;53.232;6.556;2023-05-29T06:28:56;102680.03;;;15.86;45.88
29359;BME280;16347;53.232;6.556;2023-05-29T06:31:24;102689.00;;;15.79;46.08
29359;BME280;16347;53.232;6.556;2023-05-29T06:33:52;102692.88;;;15.86;46.07
29359;BME280;16347;53.232;6.556;2023-05-29T06:36:21;102689.88;;;15.79;45.88
29359;BME280;16347;53.232;6.556;2023-05-29T06:38:50;102688.72;;;15.72;45.78
29359;BME280;16347;53.232;6.556;2023-05-29T06:41:18;102696.63;;;15.95;45.65
29359;BME280;16347;53.232;6.556;2023-05-29T06:44:09;102690.69;;;15.99;45.89
29359;BME280;16347;53.232;6.556;2023-05-29T06:46:38;102698.06;;;15.89;45.41
29359;BME280;16347;53.232;6.556;2023-05-29T06:49:06;102697.97;;;15.81;45.83
29359;BME280;16347;53.232;6.556;2023-05-29T06:51:34;102699.81;;;15.90;45.42
29359;BME280;16347;53.232;6.556;2023-05-29T06:54:21;102699.25;;;15.86;45.61
29359;BME280;16347;53.232;6.556;2023-05-29T06:56:49;102705.91;;;15.84;45.07
29359;BME280;16347;53.232;6.556;2023-05-29T06:59:37;102706.75;;;15.94;46.13
29359;BME280;16347;53.232;6.556;2023-05-29T07:02:06;102714.94;;;16.04;46.03
29359;BME280;16347;53.232;6.556;2023-05-29T07:04:34;102711.19;;;16.05;45.63
29359;BME280;16347;53.232;6.556;2023-05-29T07:07:03;102723.19;;;15.94;45.15
29359;BME280;16347;53.232;6.556;2023-05-29T07:09:31;102723.34;;;15.93;45.63
29359;BME280;16347;53.232;6.556;2023-05-29T07:12:00;102714.38;;;16.00;45.92
29359;BME280;16347;53.232;6.556;2023-05-29T07:14:28;102721.41;;;16.12;45.96
29359;BME280;16347;53.232;6.556;2023-05-29T07:16:58;102724.84;;;16.24;45.00
29359;BME280;16347;53.232;6.556;2023-05-29T07:19:27;102720.34;;;16.23;45.09
29359;BME280;16347;53.232;6.556;2023-05-29T07:21:55;102719.09;;;16.17;45.14
29359;BME280;16347;53.232;6.556;2023-05-29T07:24:24;102719.09;;;16.17;45.30
29359;BME280;16347;53.232;6.556;2023-05-29T07:26:52;102719.19;;;16.25;45.47
29359;BME280;16347;53.232;6.556;2023-05-29T07:29:22;102716.00;;;16.30;45.48
29359;BME280;16347;53.232;6.556;2023-05-29T07:31:50;102729.97;;;16.36;45.52
29359;BME280;16347;53.232;6.556;2023-05-29T07:34:21;102717.47;;;16.24;45.01
29359;BME280;16347;53.232;6.556;2023-05-29T07:37:01;102719.03;;;16.27;45.57
29359;BME280;16347;53.232;6.556;2023-05-29T07:39:33;102721.63;;;16.38;45.59
29359;BME280;16347;53.232;6.556;2023-05-29T07:42:09;102713.50;;;16.36;45.25
29359;BME280;16347;53.232;6.556;2023-05-29T07:44:40;102710.41;;;16.49;45.30
29359;BME280;16347;53.232;6.556;2023-05-29T07:47:09;102722.56;;;16.47;45.16
29359;BME280;16347;53.232;6.556;2023-05-29T07:49:42;102720.13;;;16.43;45.57
29359;BME280;16347;53.232;6.556;2023-05-29T07:52:10;102733.44;;;16.38;44.72
29359;BME280;16347;53.232;6.556;2023-05-29T07:54:38;102724.66;;;16.35;44.81
29359;BME280;16347;53.232;6.556;2023-05-29T07:57:08;102733.59;;;16.37;45.00
29359;BME280;16347;53.232;6.556;2023-05-29T07:59:40;102727.09;;;16.38;45.14
29359;BME280;16347;53.232;6.556;2023-05-29T08:02:09;102741.41;;;16.32;44.75
29359;BME280;16347;53.232;6.556;2023-05-29T08:04:52;102734.56;;;16.46;44.44
29359;BME280;16347;53.232;6.556;2023-05-29T08:07:21;102738.66;;;16.41;44.89
29359;BME280;16347;53.232;6.556;2023-05-29T08:09:49;102735.00;;;16.51;44.73
29359;BME280;16347;53.232;6.556;2023-05-29T08:12:17;102723.75;;;16.44;44.47
29359;BME280;16347;53.232;6.556;2023-05-29T08:14:46;102724.81;;;16.33;44.86
29359;BME280;16347;53.232;6.556;2023-05-29T08:17:15;102728.56;;;16.32;45.12
29359;BME280;16347;53.232;6.556;2023-05-29T08:19:44;102727.25;;;16.36;45.09
29359;BME280;16347;53.232;6.556;2023-05-29T08:22:14;102731.78;;;16.28;45.61
29359;BME280;16347;53.232;6.556;2023-05-29T08:24:43;102733.91;;;16.34;45.52
29359;BME280;16347;53.232;6.556;2023-05-29T08:27:11;102740.22;;;16.44;45.68
29359;BME280;16347;53.232;6.556;2023-05-29T08:29:39;102739.66;;;16.40;44.83
29359;BME280;16347;53.232;6.556;2023-05-29T08:32:08;102738.78;;;16.40;45.16
29359;BME280;16347;53.232;6.556;2023-05-29T08:34:36;102734.72;;;16.44;45.48
29359;BME280;16347;53.232;6.556;2023-05-29T08:37:04;102740.19;;;16.54;45.29
29359;BME280;16347;53.232;6.556;2023-05-29T08:39:34;102738.84;;;16.67;45.57
29359;BME280;16347;53.232;6.556;2023-05-29T08:42:04;102749.97;;;16.66;44.77
29359;BME280;16347;53.232;6.556;2023-05-29T08:44:35;102743.38;;;16.49;44.59
29359;BME280;16347;53.232;6.556;2023-05-29T08:47:06;102750.47;;;16.52;44.37
29359;BME280;16347;53.232;6.556;2023-05-29T08:49:40;102753.78;;;16.46;45.03
29359;BME280;16347;53.232;6.556;2023-05-29T08:52:12;102753.28;;;16.23;45.75
29359;BME280;16347;53.232;6.556;2023-05-29T08:54:43;102747.47;;;16.35;45.85
29359;BME280;16347;53.232;6.556;2023-05-29T08:57:11;102761.69;;;16.21;46.08
29359;BME280;16347;53.232;6.556;2023-05-29T08:59:42;102753.16;;;16.24;46.41
29359;BME280;16347;53.232;6.556;2023-05-29T09:02:11;102754.25;;;16.41;46.33
29359;BME280;16347;53.232;6.556;2023-05-29T09:04:41;102753.81;;;16.55;45.83
29359;BME280;16347;53.232;6.556;2023-05-29T09:07:11;102753.03;;;16.53;45.77
29359;BME280;16347;53.232;6.556;2023-05-29T09:09:40;102750.47;;;16.42;45.84
29359;BME280;16347;53.232;6.556;2023-05-29T09:12:10;102751.44;;;16.60;45.67
29359;BME280;16347;53.232;6.556;2023-05-29T09:14:40;102763.69;;;16.66;44.83
29359;BME280;16347;53.232;6.556;2023-05-29T09:17:10;102760.25;;;16.64;45.25
29359;BME280;16347;53.232;6.556;2023-05-29T09:19:39;102755.56;;;16.74;45.23
29359;BME280;16347;53.232;6.556;2023-05-29T09:22:09;102753.69;;;16.74;45.01
29359;BME280;16347;53.232;6.556;2023-05-29T09:24:38;102746.28;;;16.84;44.80
29359;BME280;16347;53.232;6.556;2023-05-29T09:27:08;102754.88;;;16.72;44.18
29359;BME280;16347;53.232;6.556;2023-05-29T09:29:40;102755.06;;;16.88;44.91
29359;BME280;16347;53.232;6.556;2023-05-29T09:32:09;102754.03;;;16.89;44.77
29359;BME280;16347;53.232;6.556;2023-05-29T09:34:38;102745.19;;;16.95;45.15
29359;BME280;16347;53.232;6.556;2023-05-29T09:37:07;102755.22;;;16.86;44.81
29359;BME280;16347;53.232;6.556;2023-05-29T09:39:45;102753.53;;;16.76;45.61
29359;BME280;16347;53.232;6.556;2023-05-29T09:42:15;102762.94;;;16.73;45.21
29359;BME280;16347;53.232;6.556;2023-05-29T09:44:48;102752.38;;;16.78;44.81
29359;BME280;16347;53.232;6.556;2023-05-29T09:47:18;102757.09;;;16.86;45.96
29359;BME280;16347;53.232;6.556;2023-05-29T09:49:47;102750.78;;;16.76;45.87
29359;BME280;16347;53.232;6.556;2023-05-29T09:52:20;102757.63;;;16.72;45.81
29359;BME280;16347;53.232;6.556;2023-05-29T09:54:50;102748.28;;;16.82;45.62
29359;BME280;16347;53.232;6.556;2023-05-29T09:57:20;102742.53;;;17.03;45.82
29359;BME280;16347;53.232;6.556;2023-05-29T09:59:52;102745.56;;;17.00;44.75
29359;BME280;16347;53.232;6.556;2023-05-29T10:02:21;102742.75;;;17.10;45.79
29359;BME280;16347;53.232;6.556;2023-05-29T10:04:49;102751.97;;;17.18;43.98
29359;BME280;16347;53.232;6.556;2023-05-29T10:07:24;102749.78;;;17.22;44.85
29359;BME280;16347;53.232;6.556;2023-05-29T10:09:59;102751.66;;;17.21;44.30
29359;BME280;16347;53.232;6.556;2023-05-29T10:12:30;102744.91;;;17.33;44.62
29359;BME280;16347;53.232;6.556;2023-05-29T10:15:02;102749.72;;;17.31;44.16
29359;BME280;16347;53.232;6.556;2023-05-29T10:17:34;102750.09;;;17.36;44.17
29359;BME280;16347;53.232;6.556;2023-05-29T10:20:05;102751.28;;;17.34;45.02
29359;BME280;16347;53.232;6.556;2023-05-29T10:22:39;102748.94;;;17.39;45.23
29359;BME280;16347;53.232;6.556;2023-05-29T10:25:09;102745.06;;;17.32;44.28
29359;BME280;16347;53.232;6.556;2023-05-29T10:27:39;102745.69;;;17.26;43.69
29359;BME280;16347;53.232;6.556;2023-05-29T10:30:14;102750.34;;;17.25;43.94
29359;BME280;16347;53.232;6.556;2023-05-29T10:32:59;102747.25;;;17.46;44.01
29359;BME280;16347;53.232;6.556;2023-05-29T10:35:39;102735.66;;;17.52;44.40
29359;BME280;16347;53.232;6.556;2023-05-29T10:38:11;102742.78;;;17.63;45.15
29359;BME280;16347;53.232;6.556;2023-05-29T10:40:40;102759.16;;;17.64;44.03
29359;BME280;16347;53.232;6.556;2023-05-29T10:43:08;102751.28;;;17.52;43.91
29359;BME280;16347;53.232;6.556;2023-05-29T10:45:54;102746.19;;;17.57;44.20
29359;BME280;16347;53.232;6.556;2023-05-29T10:48:49;102747.88;;;17.40;44.27
29359;BME280;16347;53.232;6.556;2023-05-29T10:51:26;102743.66;;;17.46;44.24
29359;BME280;16347;53.232;6.556;2023-05-29T10:53:55;102737.94;;;17.39;43.99
29359;BME280;16347;53.232;6.556;2023-05-29T10:56:28;102745.69;;;17.26;44.85
29359;BME280;16347;53.232;6.556;2023-05-29T10:58:58;102743.44;;;17.39;44.94
29359;BME280;16347;53.232;6.556;2023-05-29T11:01:29;102746.41;;;17.46;44.66
29359;BME280;16347;53.232;6.556;2023-05-29T11:04:26;102749.22;;;17.54;45.34
29359;BME280;16347;53.232;6.556;2023-05-29T11:06:57;102752.50;;;17.39;43.61
29359;BME280;16347;53.232;6.556;2023-05-29T11:09:26;102748.13;;;17.29;43.79
29359;BME280;16347;53.232;6.556;2023-05-29T11:12:15;102746.63;;;17.34;44.36
29359;BME280;16347;53.232;6.556;2023-05-29T11:14:55;102751.38;;;17.42;43.73
29359;BME280;16347;53.232;6.556;2023-05-29T11:17:34;102749.06;;;17.55;43.89
29359;BME280;16347;53.232;6.556;2023-05-29T11:20:31;102752.72;;;17.56;42.96
29359;BME280;16347;53.232;6.556;2023-05-29T11:23:04;102759.06;;;17.38;43.77
29359;BME280;16347;53.232;6.556;2023-05-29T11:25:36;102760.53;;;17.33;44.26
29359;BME280;16347;53.232;6.556;2023-05-29T11:28:05;102752.94;;;17.44;44.60
29359;BME280;16347;53.232;6.556;2023-05-29T11:30:46;102753.28;;;17.59;44.65
29359;BME280;16347;53.232;6.556;2023-05-29T11:33:25;102747.06;;;17.57;44.11
29359;BME280;16347;53.232;6.556;2023-05-29T11:35:56;102750.34;;;17.61;44.77
29359;BME280;16347;53.232;6.556;2023-05-29T11:38:24;102749.47;;;17.60;42.93
29359;BME280;16347;53.232;6.556;2023-05-29T11:40:54;102761.94;;;17.37;43.52
29359;BME280;16347;53.232;6.556;2023-05-29T11:43:23;102751.69;;;17.39;44.66
29359;BME280;16347;53.232;6.556;2023-05-29T11:45:51;102744.44;;;17.38;43.79
29359;BME280;16347;53.232;6.556;2023-05-29T11:48:21;102754.16;;;17.50;45.66
29359;BME280;16347;53.232;6.556;2023-05-29T11:50:52;102748.28;;;17.63;43.15
29359;BME280;16347;53.232;6.556;2023-05-29T11:53:20;102751.91;;;17.81;42.74
29359;BME280;16347;53.232;6.556;2023-05-29T11:55:49;102744.25;;;17.92;43.35
29359;BME280;16347;53.232;6.556;2023-05-29T11:58:17;102744.84;;;18.04;42.69
29359;BME280;16347;53.232;6.556;2023-05-29T12:00:47;102754.00;;;17.87;43.51
29359;BME280;16347;53.232;6.556;2023-05-29T12:03:17;102744.34;;;17.83;43.49
29359;BME280;16347;53.232;6.556;2023-05-29T12:05:47;102749.34;;;17.62;43.61
29359;BME280;16347;53.232;6.556;2023-05-29T12:08:22;102737.22;;;17.72;43.75
29359;BME280;16347;53.232;6.556;2023-05-29T12:10:52;102759.47;;;17.79;44.12
29359;BME280;16347;53.232;6.556;2023-05-29T12:13:21;102751.22;;;17.79;44.30
29359;BME280;16347;53.232;6.556;2023-05-29T12:15:52;102741.66;;;17.91;43.47
29359;BME280;16347;53.232;6.556;2023-05-29T12:18:21;102742.59;;;18.00;43.83
29359;BME280;16347;53.232;6.556;2023-05-29T12:20:49;102747.72;;;17.94;43.01
29359;BME280;16347;53.232;6.556;2023-05-29T12:23:18;102735.50;;;17.71;43.36
29359;BME280;16347;53.232;6.556;2023-05-29T12:25:50;102743.41;;;17.92;43.96
29359;BME280;16347;53.232;6.556;2023-05-29T12:28:20;102744.72;;;17.88;43.46
29359;BME280;16347;53.232;6.556;2023-05-29T12:30:49;102742.31;;;18.11;43.40
29359;BME280;16347;53.232;6.556;2023-05-29T12:33:31;102741.03;;;18.23;42.71
29359;BME280;16347;53.232;6.556;2023-05-29T12:36:04;102740.59;;;18.43;42.76
29359;BME280;16347;53.232;6.556;2023-05-29T12:38:33;102740.28;;;18.80;41.53
29359;BME280;16347;53.232;6.556;2023-05-29T12:41:04;102735.28;;;18.76;41.04
29359;BME280;16347;53.232;6.556;2023-05-29T12:43:32;102745.16;;;18.86;40.65
29359;BME280;16347;53.232;6.556;2023-05-29T12:46:00;102744.91;;;18.72;39.62
29359;BME280;16347;53.232;6.556;2023-05-29T12:48:29;102739.66;;;18.94;40.32
29359;BME280;16347;53.232;6.556;2023-05-29T12:51:04;102737.47;;;19.06;40.36
29359;BME280;16347;53.232;6.556;2023-05-29T12:53:34;102747.47;;;19.15;38.54
29359;BME280;16347;53.232;6.556;2023-05-29T12:56:03;102749.34;;;19.15;38.77
29359;BME280;16347;53.232;6.556;2023-05-29T12:58:31;102737.50;;;19.22;39.47
29359;BME280;16347;53.232;6.556;2023-05-29T13:01:00;102739.88;;;19.09;38.18
29359;BME280;16347;53.232;6.556;2023-05-29T13:03:29;102732.81;;;19.15;39.16
29359;BME280;16347;53.232;6.556;2023-05-29T13:05:57;102729.22;;;19.22;39.93
29359;BME280;16347;53.232;6.556;2023-05-29T13:08:25;102736.47;;;19.23;39.24